Terminal Aerodrome Forecast
Issued by NWS Shreveport, LA

Home | Current Version | Previous Version | Text Only | Print | Product List | Glossary On
Versions: 1 2 3 4 5 6 7 8 9 10 11 12
000
FTUS44 KSHV 212300
TAFTYR
TAF
KTYR 212321Z 2200/2224 09003KT P6SM SKC
     FM221400 08006KT P6SM SCT040
     FM221700 08007KT P6SM SCT045 SCT250=

USA.gov is the U.S. government's official web portal to all federal, state and local government web resources and services.